Time;durP1;ratioP1;P1;durP2;ratioP2;P2;SDS_P1;SDS_P2;PMS_P1;PMS_P2;Temp;Humidity;BMP_temperature;BMP_pressure;BME280_temperature;BME280_humidity;BME280_pressure;Samples;Min_cycle;Max_cycle;Signal;HPM_P1;HPM_P2
2023/05/20 00:01:59;;;;;;;10.13;2.60;;;11.50;99.90;;;;;;5072827;27;20511;-75
2023/05/20 00:04:25;;;;;;;8.90;2.17;;;11.50;99.90;;;;;;5110912;27;20054;-69
2023/05/20 00:06:51;;;;;;;4.95;2.15;;;11.50;99.90;;;;;;5076721;27;20071;-69
2023/05/20 00:09:17;;;;;;;7.45;2.63;;;11.40;99.90;;;;;;5109956;27;20482;-72
2023/05/20 00:11:44;;;;;;;9.02;2.33;;;11.50;99.90;;;;;;5111193;27;20130;-73
2023/05/20 00:14:11;;;;;;;8.52;2.30;;;11.40;99.90;;;;;;5093319;27;20051;-68
2023/05/20 00:16:37;;;;;;;9.15;2.58;;;11.50;99.90;;;;;;5081138;27;20059;-68
2023/05/20 00:19:02;;;;;;;10.10;2.67;;;11.40;99.90;;;;;;5109931;27;20035;-73
2023/05/20 00:21:28;;;;;;;11.40;2.38;;;11.40;99.90;;;;;;5075833;27;20039;-66
2023/05/20 00:23:55;;;;;;;7.22;3.13;;;11.40;99.90;;;;;;5110527;27;20454;-67
2023/05/20 00:26:21;;;;;;;8.75;2.78;;;11.40;99.90;;;;;;5110485;27;20044;-76
2023/05/20 00:28:47;;;;;;;8.85;2.70;;;11.30;99.90;;;;;;5091964;27;20046;-73
2023/05/20 00:31:13;;;;;;;6.65;2.50;;;11.30;99.90;;;;;;5089214;28;20126;-77
2023/05/20 00:33:38;;;;;;;6.60;2.20;;;11.30;99.90;;;;;;5106829;28;20129;-80
2023/05/20 00:36:05;;;;;;;7.45;2.40;;;11.30;99.90;;;;;;5071914;28;20101;-73
2023/05/20 00:38:30;;;;;;;5.82;2.58;;;11.30;99.90;;;;;;5098080;28;20519;-72
2023/05/20 00:40:56;;;;;;;6.82;2.50;;;11.30;99.90;;;;;;5093046;27;20107;-75
2023/05/20 00:43:24;;;;;;;12.40;2.30;;;11.30;99.90;;;;;;5110202;27;20823;-79
2023/05/20 00:45:51;;;;;;;13.85;2.83;;;11.30;99.90;;;;;;5110047;27;20050;-74
2023/05/20 00:48:17;;;;;;;9.52;2.70;;;11.30;99.90;;;;;;5086799;28;20123;-75
2023/05/20 00:50:43;;;;;;;6.53;2.60;;;11.30;99.90;;;;;;5092845;27;20088;-72
2023/05/20 00:53:09;;;;;;;4.82;2.20;;;11.30;99.90;;;;;;5092781;27;20035;-75
2023/05/20 00:55:35;;;;;;;5.95;2.35;;;11.20;99.90;;;;;;5092077;27;20051;-78
2023/05/20 00:58:01;;;;;;;12.25;3.60;;;11.20;99.90;;;;;;5097588;28;20510;-76
2023/05/20 01:00:27;;;;;;;7.20;2.40;;;11.10;99.90;;;;;;5089017;28;20040;-74
2023/05/20 01:02:55;;;;;;;8.68;2.65;;;11.20;99.90;;;;;;5088990;28;20127;-69
2023/05/20 01:05:20;;;;;;;9.52;2.30;;;11.10;99.90;;;;;;5089251;28;20047;-70
2023/05/20 01:07:46;;;;;;;6.20;2.95;;;11.10;99.90;;;;;;5035853;28;20044;-73
2023/05/20 01:10:12;;;;;;;10.45;2.60;;;11.10;99.90;;;;;;5096807;27;20043;-78
2023/05/20 01:12:47;;;;;;;6.20;2.60;;;11.10;99.90;;;;;;5092132;27;20042;-77
2023/05/20 01:15:14;;;;;;;4.18;2.42;;;11.10;99.90;;;;;;5109337;27;20203;-70
2023/05/20 01:17:45;;;;;;;12.45;2.92;;;11.00;99.90;;;;;;5109640;27;20035;-78
2023/05/20 01:20:13;;;;;;;9.30;2.55;;;11.00;99.90;;;;;;5108833;27;20075;-70
2023/05/20 01:22:46;;;;;;;6.22;2.35;;;11.00;99.90;;;;;;5108872;27;20043;-71
2023/05/20 01:25:12;;;;;;;8.98;2.50;;;11.00;99.90;;;;;;5109854;27;20039;-68
2023/05/20 01:27:38;;;;;;;5.20;2.38;;;11.10;99.90;;;;;;5108499;27;20100;-74
2023/05/20 01:30:05;;;;;;;5.00;2.10;;;11.10;99.90;;;;;;5091981;27;20517;-78
2023/05/20 01:32:34;;;;;;;11.35;2.42;;;11.00;99.90;;;;;;5090144;27;20043;-74
2023/05/20 01:35:00;;;;;;;7.25;2.63;;;11.00;99.90;;;;;;5109307;27;20043;-75
2023/05/20 01:37:27;;;;;;;8.57;2.70;;;11.00;99.90;;;;;;5108388;27;20047;-72
2023/05/20 01:39:55;;;;;;;6.28;2.30;;;11.00;99.90;;;;;;5109195;27;20063;-70
2023/05/20 01:42:21;;;;;;;5.97;2.55;;;10.90;99.90;;;;;;5107737;27;20139;-74
2023/05/20 01:44:47;;;;;;;12.00;2.15;;;11.00;99.90;;;;;;5078597;28;20035;-73
2023/05/20 01:47:13;;;;;;;6.00;2.55;;;10.90;99.90;;;;;;5088472;28;20043;-71
2023/05/20 01:49:39;;;;;;;5.28;2.10;;;11.00;99.90;;;;;;5104989;28;20050;-73
2023/05/20 01:52:05;;;;;;;4.53;2.35;;;11.00;99.90;;;;;;5105104;28;20413;-82
2023/05/20 01:54:31;;;;;;;9.68;2.28;;;11.00;99.90;;;;;;5104797;28;20126;-79
2023/05/20 01:56:56;;;;;;;5.35;2.17;;;11.00;99.90;;;;;;5088632;28;20036;-73
2023/05/20 01:59:22;;;;;;;8.57;2.72;;;11.00;99.90;;;;;;5104709;28;20046;-69
2023/05/20 02:01:48;;;;;;;5.68;2.45;;;11.00;99.90;;;;;;5089252;28;20510;-72
2023/05/20 02:04:14;;;;;;;7.75;2.45;;;11.00;99.90;;;;;;5105277;28;20043;-76
2023/05/20 02:06:39;;;;;;;6.22;2.85;;;11.10;99.90;;;;;;5087549;28;20174;-76
2023/05/20 02:09:05;;;;;;;5.00;2.00;;;11.10;99.90;;;;;;5071651;28;20124;-70
2023/05/20 02:11:31;;;;;;;9.05;3.78;;;11.10;99.90;;;;;;5106275;27;20382;-72
2023/05/20 02:13:57;;;;;;;6.47;2.20;;;11.10;99.90;;;;;;5091151;27;20043;-76
2023/05/20 02:16:23;;;;;;;9.13;2.05;;;11.00;99.90;;;;;;5106183;27;20059;-70
2023/05/20 02:18:50;;;;;;;3.22;1.80;;;11.00;99.90;;;;;;5092185;27;20047;-71
2023/05/20 02:21:16;;;;;;;4.85;1.65;;;11.00;99.90;;;;;;5088420;27;20039;-76
2023/05/20 02:23:41;;;;;;;4.72;2.00;;;11.00;99.90;;;;;;5081548;27;20282;-76
2023/05/20 02:26:07;;;;;;;4.72;2.00;;;10.90;99.90;;;;;;5108186;27;20533;-79
2023/05/20 02:28:33;;;;;;;5.43;2.05;;;10.90;99.90;;;;;;5107475;27;20047;-76
2023/05/20 02:30:58;;;;;;;3.33;1.83;;;10.90;99.90;;;;;;5089055;27;20035;-68
2023/05/20 02:33:27;;;;;;;3.15;1.80;;;10.90;99.90;;;;;;5090492;28;20123;-71
2023/05/20 02:35:54;;;;;;;10.73;2.20;;;10.90;99.90;;;;;;5084395;27;20522;-69
2023/05/20 02:38:19;;;;;;;5.10;1.98;;;10.90;99.90;;;;;;5102437;28;20521;-74
2023/05/20 02:40:45;;;;;;;2.10;1.90;;;10.90;99.90;;;;;;5064111;27;20066;-74
2023/05/20 02:43:11;;;;;;;5.82;1.92;;;10.90;99.90;;;;;;5097241;28;20074;-79
2023/05/20 02:45:36;;;;;;;4.57;2.00;;;10.90;99.90;;;;;;5107222;27;20051;-72
2023/05/20 02:48:02;;;;;;;5.00;1.83;;;10.90;99.90;;;;;;5074191;28;20058;-73
2023/05/20 02:50:28;;;;;;;5.22;1.90;;;10.90;99.90;;;;;;5089895;28;20054;-76
2023/05/20 02:52:53;;;;;;;4.43;1.50;;;11.00;99.90;;;;;;5090781;28;20144;-69
2023/05/20 02:55:20;;;;;;;8.45;1.75;;;11.00;99.90;;;;;;5107401;28;20047;-72
2023/05/20 02:57:45;;;;;;;1.98;1.40;;;11.10;99.90;;;;;;5107690;28;20047;-75
2023/05/20 03:00:15;;;;;;;7.18;1.40;;;11.10;99.90;;;;;;5074316;28;20092;-74
2023/05/20 03:02:41;;;;;;;3.90;1.23;;;11.10;99.90;;;;;;5096130;28;20051;-74
2023/05/20 03:05:07;;;;;;;3.53;1.50;;;11.20;99.90;;;;;;5106986;28;20477;-76
2023/05/20 03:07:35;;;;;;;5.50;1.38;;;11.20;99.90;;;;;;5065424;28;20477;-70
2023/05/20 03:10:01;;;;;;;2.03;1.30;;;11.20;99.90;;;;;;5101819;28;20468;-77
2023/05/20 03:12:28;;;;;;;4.10;1.33;;;11.20;99.90;;;;;;5090079;28;20044;-74
2023/05/20 03:14:54;;;;;;;2.92;1.38;;;11.30;99.90;;;;;;5090263;28;20055;-73
2023/05/20 03:17:21;;;;;;;1.58;1.48;;;11.40;99.90;;;;;;5107577;28;20096;-70
2023/05/20 03:19:46;;;;;;;3.15;1.35;;;11.40;99.90;;;;;;5090053;28;20035;-73
2023/05/20 03:22:12;;;;;;;3.83;1.05;;;11.40;99.90;;;;;;5107774;28;20050;-76
2023/05/20 03:24:39;;;;;;;1.58;1.10;;;11.40;99.90;;;;;;5103558;28;20069;-76
2023/05/20 03:27:05;;;;;;;3.13;1.40;;;11.40;99.90;;;;;;5090609;28;20099;-72
2023/05/20 03:29:32;;;;;;;0.88;0.88;;;11.40;99.90;;;;;;5106587;28;20058;-74
2023/05/20 03:31:58;;;;;;;5.07;1.25;;;11.40;99.90;;;;;;5106313;28;20047;-74
2023/05/20 03:34:26;;;;;;;4.13;1.23;;;11.40;99.90;;;;;;5105876;28;20047;-68
2023/05/20 03:36:52;;;;;;;3.90;1.10;;;11.40;99.90;;;;;;5107274;28;20043;-69
2023/05/20 03:39:18;;;;;;;6.03;1.67;;;11.40;99.90;;;;;;5094870;28;20518;-69
2023/05/20 03:41:43;;;;;;;6.05;1.75;;;11.40;99.80;;;;;;5105253;28;20400;-78
2023/05/20 03:44:09;;;;;;;4.45;1.23;;;11.40;98.80;;;;;;5091001;28;20047;-71
2023/05/20 03:46:35;;;;;;;2.72;1.13;;;11.30;97.50;;;;;;5102144;28;20134;-72
2023/05/20 03:49:01;;;;;;;1.10;1.10;;;11.40;97.80;;;;;;5087365;28;20032;-74
2023/05/20 03:51:26;;;;;;;2.55;1.30;;;11.30;96.50;;;;;;5105987;28;20044;-73
2023/05/20 03:53:52;;;;;;;4.18;1.70;;;11.30;96.70;;;;;;5090783;28;20118;-71
2023/05/20 03:56:18;;;;;;;1.60;1.00;;;11.30;95.40;;;;;;5085032;28;20043;-71
2023/05/20 03:58:44;;;;;;;2.58;1.05;;;11.30;95.50;;;;;;5088930;28;20031;-79
2023/05/20 04:01:12;;;;;;;1.55;1.10;;;11.30;94.40;;;;;;5107698;28;20058;-79
2023/05/20 04:03:37;;;;;;;2.10;0.80;;;11.30;93.90;;;;;;5103754;28;20040;-73
2023/05/20 04:06:03;;;;;;;2.25;1.10;;;11.30;93.50;;;;;;5109828;27;20105;-76
2023/05/20 04:08:29;;;;;;;2.03;1.10;;;11.30;93.80;;;;;;5106852;28;20075;-73
2023/05/20 04:10:56;;;;;;;6.43;1.50;;;11.30;93.60;;;;;;5073469;28;20127;-77
2023/05/20 04:13:24;;;;;;;2.20;1.20;;;11.40;94.40;;;;;;5107354;28;20032;-70
2023/05/20 04:15:51;;;;;;;3.63;1.38;;;11.40;93.70;;;;;;5106596;28;20401;-69
2023/05/20 04:18:18;;;;;;;3.13;1.00;;;11.50;93.90;;;;;;5106739;28;20075;-72
2023/05/20 04:20:45;;;;;;;4.47;1.30;;;11.50;93.80;;;;;;5092587;27;20039;-71
2023/05/20 04:23:11;;;;;;;1.95;1.00;;;11.50;92.80;;;;;;5110688;27;20046;-72
2023/05/20 04:25:37;;;;;;;6.47;1.00;;;11.50;94.60;;;;;;5093874;27;20047;-69
2023/05/20 04:28:03;;;;;;;4.88;1.20;;;11.50;92.20;;;;;;5102113;27;20054;-75
2023/05/20 04:30:32;;;;;;;4.60;0.88;;;11.50;91.50;;;;;;5093615;28;20047;-76
2023/05/20 04:32:58;;;;;;;0.77;0.70;;;11.50;91.20;;;;;;5106922;27;20573;-70
2023/05/20 04:35:24;;;;;;;2.08;0.80;;;11.60;91.40;;;;;;5110464;27;20039;-73
2023/05/20 04:37:52;;;;;;;2.67;1.13;;;11.60;90.70;;;;;;5104370;28;20074;-74
2023/05/20 04:40:19;;;;;;;1.98;0.80;;;11.60;90.10;;;;;;5107117;28;20154;-78
2023/05/20 04:42:45;;;;;;;1.75;0.90;;;11.70;87.50;;;;;;5105799;28;20123;-78
2023/05/20 04:45:12;;;;;;;2.13;0.88;;;11.80;90.20;;;;;;5075661;28;20150;-75
2023/05/20 04:47:38;;;;;;;3.47;0.90;;;11.90;90.20;;;;;;5106777;28;20051;-69
2023/05/20 04:50:12;;;;;;;0.80;0.80;;;12.00;89.20;;;;;;5074394;28;20039;-76
2023/05/20 04:52:38;;;;;;;2.15;0.95;;;12.10;87.80;;;;;;5106978;28;20464;-75
2023/05/20 04:55:08;;;;;;;1.95;0.90;;;12.10;79.60;;;;;;5105684;28;20054;-76
2023/05/20 04:57:35;;;;;;;2.00;0.77;;;12.00;76.90;;;;;;5089792;28;20132;-73
2023/05/20 05:00:01;;;;;;;7.07;0.90;;;12.10;81.70;;;;;;5087164;27;20055;-74
2023/05/20 05:02:26;;;;;;;3.55;0.88;;;12.10;71.60;;;;;;5064936;28;20560;-76
2023/05/20 05:04:52;;;;;;;1.45;0.80;;;12.10;72.90;;;;;;5106083;28;20122;-77
2023/05/20 05:07:18;;;;;;;1.20;0.80;;;12.10;69.00;;;;;;5089772;28;20044;-69
2023/05/20 05:09:43;;;;;;;1.08;0.70;;;12.10;72.00;;;;;;5091031;27;20370;-81
2023/05/20 05:12:09;;;;;;;2.92;0.80;;;12.10;72.90;;;;;;5092547;27;20108;-78
2023/05/20 05:14:35;;;;;;;4.80;1.00;;;12.10;71.60;;;;;;5092275;27;20069;-75
2023/05/20 05:17:01;;;;;;;2.63;0.60;;;12.10;71.50;;;;;;5091687;27;20593;-76
2023/05/20 05:19:26;;;;;;;1.40;0.77;;;12.10;70.90;;;;;;5109063;27;20035;-73
2023/05/20 05:21:52;;;;;;;1.95;1.10;;;12.10;76.90;;;;;;5105162;28;20515;-70
2023/05/20 05:24:18;;;;;;;2.65;1.00;;;12.10;69.40;;;;;;5072684;28;20055;-72
2023/05/20 05:26:44;;;;;;;1.35;0.90;;;12.10;70.10;;;;;;5055170;28;20525;-73
2023/05/20 05:29:09;;;;;;;1.52;0.70;;;12.20;69.40;;;;;;5088634;28;20117;-76
2023/05/20 05:31:35;;;;;;;1.13;0.75;;;12.20;70.60;;;;;;5086822;28;20118;-70
2023/05/20 05:34:01;;;;;;;0.70;0.65;;;12.20;73.50;;;;;;5074648;27;20124;-69
2023/05/20 05:36:26;;;;;;;0.85;0.80;;;12.30;75.00;;;;;;5092033;27;20092;-75
2023/05/20 05:38:52;;;;;;;1.75;0.68;;;12.30;70.90;;;;;;5083695;28;20036;-77
2023/05/20 05:41:18;;;;;;;2.05;0.80;;;12.30;67.90;;;;;;5093537;28;20043;-71
2023/05/20 05:43:45;;;;;;;4.30;1.00;;;12.20;66.00;;;;;;5096022;27;20067;-74
2023/05/20 05:46:11;;;;;;;2.90;0.82;;;12.30;66.10;;;;;;5108928;27;20462;-74
2023/05/20 05:48:36;;;;;;;1.00;0.68;;;12.30;60.20;;;;;;5091728;27;20096;-75
2023/05/20 05:51:03;;;;;;;0.63;0.50;;;12.20;67.80;;;;;;5072225;27;20042;-72
2023/05/20 05:53:29;;;;;;;3.55;1.73;;;12.30;65.50;;;;;;5106630;27;20061;-73
2023/05/20 05:55:54;;;;;;;3.65;1.05;;;12.30;75.80;;;;;;5108038;27;20050;-77
2023/05/20 05:58:20;;;;;;;3.03;1.02;;;12.40;69.00;;;;;;5109033;27;20050;-70
2023/05/20 06:00:49;;;;;;;2.13;0.80;;;12.40;67.00;;;;;;5091456;27;20050;-73
2023/05/20 06:03:15;;;;;;;2.77;1.30;;;12.40;67.80;;;;;;5085950;28;20497;-72
2023/05/20 06:05:45;;;;;;;0.68;0.57;;;12.50;70.40;;;;;;5104829;28;20042;-73
2023/05/20 06:08:10;;;;;;;2.05;1.02;;;12.50;60.60;;;;;;5091468;27;20054;-72
2023/05/20 06:10:36;;;;;;;4.32;0.77;;;12.50;67.70;;;;;;5108294;27;20050;-77
2023/05/20 06:13:02;;;;;;;2.05;0.80;;;12.50;63.00;;;;;;5106902;27;20040;-80
2023/05/20 06:15:27;;;;;;;3.92;0.85;;;12.50;65.20;;;;;;5108254;27;20096;-70
2023/05/20 06:17:53;;;;;;;3.47;0.70;;;12.60;67.50;;;;;;5090512;27;20038;-82
2023/05/20 06:20:19;;;;;;;1.65;0.63;;;12.70;68.80;;;;;;5109204;27;20099;-76
2023/05/20 06:22:45;;;;;;;5.03;0.82;;;12.70;66.30;;;;;;5087438;27;20039;-77
2023/05/20 06:25:11;;;;;;;3.72;0.80;;;12.80;71.90;;;;;;5108313;27;20046;-70
2023/05/20 06:27:37;;;;;;;1.88;0.60;;;12.90;70.00;;;;;;5092941;28;20035;-71
2023/05/20 06:30:03;;;;;;;1.80;0.93;;;13.00;65.70;;;;;;5070595;28;20088;-74
2023/05/20 06:32:29;;;;;;;2.78;0.77;;;13.00;66.70;;;;;;5071180;27;20055;-72
2023/05/20 06:34:55;;;;;;;2.33;0.68;;;13.10;66.00;;;;;;5087982;28;20063;-78
2023/05/20 06:37:23;;;;;;;3.33;0.73;;;13.20;62.60;;;;;;5071114;28;20039;-68
2023/05/20 06:39:52;;;;;;;1.20;0.90;;;13.30;58.80;;;;;;5067933;28;20489;-68
2023/05/20 06:42:19;;;;;;;1.95;0.73;;;13.30;58.70;;;;;;5054641;28;20036;-76
2023/05/20 06:44:45;;;;;;;1.85;1.73;;;13.40;58.20;;;;;;5082006;28;20076;-70
2023/05/20 06:47:14;;;;;;;1.17;1.00;;;13.40;56.40;;;;;;5106979;28;20122;-72
2023/05/20 06:49:43;;;;;;;2.60;1.02;;;13.50;43.30;;;;;;5092975;28;20075;-74
2023/05/20 06:52:09;;;;;;;3.03;0.90;;;13.50;48.00;;;;;;5121265;27;20051;-73
2023/05/20 06:54:38;;;;;;;2.90;0.80;;;13.60;58.20;;;;;;5087429;28;20517;-69
2023/05/20 06:57:08;;;;;;;3.15;1.02;;;13.70;33.20;;;;;;5120588;28;20485;-72
2023/05/20 06:59:34;;;;;;;;;;;13.70;57.00;;;;;;5071766;28;20047;-74
2023/05/20 07:02:01;;;;;;;1.73;0.65;;;13.80;47.80;;;;;;5068982;28;19923;-72
2023/05/20 07:04:27;;;;;;;1.92;0.90;;;13.90;55.70;;;;;;5071004;28;20543;-68
2023/05/20 07:06:52;;;;;;;2.85;0.73;;;14.00;52.80;;;;;;5071748;28;20031;-81
2023/05/20 07:09:18;;;;;;;6.80;0.82;;;14.10;39.50;;;;;;5091422;28;20039;-71
2023/05/20 07:11:44;;;;;;;6.18;0.90;;;14.30;51.50;;;;;;5089233;28;20447;-74
2023/05/20 07:14:10;;;;;;;3.10;1.05;;;14.50;41.30;;;;;;5069475;28;20127;-73
2023/05/20 07:16:36;;;;;;;2.05;0.90;;;14.70;43.40;;;;;;5087250;28;20067;-71
2023/05/20 07:19:02;;;;;;;2.90;0.50;;;14.80;32.60;;;;;;5087110;28;20047;-78
2023/05/20 07:21:28;;;;;;;1.73;0.82;;;15.00;33.40;;;;;;5085754;28;20056;-78
2023/05/20 07:23:54;;;;;;;2.47;1.10;;;15.20;20.30;;;;;;5084472;28;20139;-72
2023/05/20 07:26:20;;;;;;;4.53;1.30;;;15.40;27.00;;;;;;5081896;28;20040;-73
2023/05/20 07:28:46;;;;;;;2.55;0.82;;;15.50;23.70;;;;;;5073144;28;20081;-68
2023/05/20 07:31:12;;;;;;;0.90;0.77;;;15.60;5.80;;;;;;5123586;27;20540;-70
2023/05/20 07:33:38;;;;;;;2.28;0.80;;;15.80;4.90;;;;;;5108732;28;20138;-67
2023/05/20 07:36:04;;;;;;;2.45;1.10;;;15.90;13.50;;;;;;5095362;28;20118;-73
2023/05/20 07:38:31;;;;;;;6.20;1.20;;;16.00;6.70;;;;;;5091611;28;20059;-74
2023/05/20 07:40:57;;;;;;;2.60;0.75;;;16.30;2.90;;;;;;5090677;28;20040;-67
2023/05/20 07:43:22;;;;;;;3.35;0.80;;;16.50;8.70;;;;;;5073483;28;20046;-70
2023/05/20 07:45:48;;;;;;;1.23;0.95;;;16.80;7.60;;;;;;5095939;27;20085;-71
2023/05/20 07:48:14;;;;;;;7.47;0.90;;;17.00;11.00;;;;;;5090108;28;20052;-72
2023/05/20 07:50:40;;;;;;;0.77;0.77;;;17.20;1.00;;;;;;5107707;28;20126;-72
2023/05/20 07:53:06;;;;;;;0.70;0.70;;;17.40;1.00;;;;;;5124061;27;20081;-78
2023/05/20 07:55:38;;;;;;;2.25;0.95;;;17.60;1.00;;;;;;5090745;28;20058;-68
2023/05/20 07:58:04;;;;;;;0.65;0.65;;;17.70;1.00;;;;;;5095979;28;20135;-70
2023/05/20 08:00:30;;;;;;;1.30;0.80;;;18.10;1.00;;;;;;5123255;27;20122;-67
2023/05/20 08:02:55;;;;;;;0.85;0.65;;;18.20;1.00;;;;;;5072161;28;20032;-70
2023/05/20 08:05:21;;;;;;;5.30;0.70;;;18.20;1.00;;;;;;5088606;28;20044;-70
2023/05/20 08:07:47;;;;;;;1.45;0.90;;;18.30;1.00;;;;;;5101964;28;20077;-71
2023/05/20 08:10:13;;;;;;;1.65;0.90;;;18.20;1.00;;;;;;5101592;27;20055;-73
2023/05/20 08:12:39;;;;;;;3.63;0.75;;;18.20;1.00;;;;;;5111125;27;20042;-74
2023/05/20 08:15:05;;;;;;;5.32;0.80;;;18.30;1.00;;;;;;5093057;27;20482;-65
2023/05/20 08:17:32;;;;;;;1.98;0.75;;;18.30;1.00;;;;;;5091323;27;20882;-66
2023/05/20 08:19:57;;;;;;;4.32;1.20;;;18.40;1.00;;;;;;5085695;28;20086;-71
2023/05/20 08:22:23;;;;;;;2.63;0.93;;;18.50;1.00;;;;;;5124214;27;20075;-65
2023/05/20 08:24:49;;;;;;;1.13;0.77;;;18.60;1.00;;;;;;5124149;27;20031;-66
2023/05/20 08:27:14;;;;;;;3.30;0.80;;;18.70;1.00;;;;;;5090474;27;20048;-66
2023/05/20 08:29:40;;;;;;;5.47;1.10;;;18.80;1.00;;;;;;5107586;28;20097;-64
2023/05/20 08:32:06;;;;;;;3.88;1.17;;;18.90;1.00;;;;;;5088402;28;20472;-65
2023/05/20 08:34:32;;;;;;;1.73;1.00;;;19.10;1.00;;;;;;5107910;28;20035;-62
2023/05/20 08:36:58;;;;;;;1.40;0.68;;;19.10;1.00;;;;;;5121913;27;20051;-62
2023/05/20 08:39:25;;;;;;;2.90;0.82;;;19.20;1.00;;;;;;5125660;27;20051;-68
2023/05/20 08:41:51;;;;;;;4.35;0.55;;;19.20;1.00;;;;;;5069440;28;20500;-63
2023/05/20 08:44:20;;;;;;;0.70;0.70;;;19.20;1.00;;;;;;5072481;28;20048;-68
2023/05/20 08:46:47;;;;;;;3.58;0.90;;;19.40;1.00;;;;;;5090235;28;20039;-68
2023/05/20 08:49:13;;;;;;;4.90;1.02;;;19.60;1.00;;;;;;5088576;28;20484;-73
2023/05/20 08:51:39;;;;;;;1.08;0.98;;;19.50;1.00;;;;;;5123336;27;20132;-66
2023/05/20 08:54:07;;;;;;;4.63;0.93;;;19.80;1.00;;;;;;5106552;28;20114;-63
2023/05/20 08:56:33;;;;;;;1.05;0.85;;;19.80;1.00;;;;;;5122983;27;20130;-63
2023/05/20 08:58:58;;;;;;;2.08;0.75;;;19.90;1.00;;;;;;5089607;28;20177;-62
2023/05/20 09:01:27;;;;;;;5.78;1.30;;;19.70;1.00;;;;;;5104921;28;20486;-61
2023/05/20 09:03:52;;;;;;;1.67;0.82;;;19.60;1.00;;;;;;5073053;28;20040;-70
2023/05/20 09:06:21;;;;;;;2.95;1.17;;;19.60;1.00;;;;;;5087941;28;20093;-71
2023/05/20 09:08:50;;;;;;;1.20;1.10;;;19.70;1.00;;;;;;5073123;28;20051;-63
2023/05/20 09:11:16;;;;;;;;;;;19.70;1.00;;;;;;5064621;28;20043;-74
2023/05/20 09:13:42;;;;;;;4.00;1.20;;;19.70;1.00;;;;;;5098668;28;19923;-66
2023/05/20 09:16:10;;;;;;;1.00;1.00;;;19.70;1.00;;;;;;5103361;28;20482;-64
2023/05/20 09:18:39;;;;;;;5.53;1.73;;;19.90;1.00;;;;;;5099807;28;20405;-69
2023/05/20 09:21:07;;;;;;;3.50;1.30;;;19.80;1.00;;;;;;5088676;28;20524;-67
2023/05/20 09:23:37;;;;;;;5.53;2.00;;;19.80;1.00;;;;;;5071040;28;20038;-64
2023/05/20 09:26:03;;;;;;;1.48;0.88;;;20.00;1.00;;;;;;5106760;28;20043;-69
2023/05/20 09:28:29;;;;;;;1.95;1.17;;;20.00;1.00;;;;;;5087820;28;20377;-64
2023/05/20 09:30:58;;;;;;;3.30;1.15;;;20.20;1.00;;;;;;5052649;28;20052;-63
2023/05/20 09:33:28;;;;;;;4.35;1.00;;;20.20;1.00;;;;;;5074506;28;20531;-73
2023/05/20 09:36:02;;;;;;;3.67;1.73;;;20.40;1.00;;;;;;5087900;28;20490;-62
2023/05/20 09:38:34;;;;;;;3.17;1.00;;;20.40;1.00;;;;;;5080521;28;20043;-65
2023/05/20 09:41:12;;;;;;;1.90;1.08;;;20.40;1.00;;;;;;5079737;28;20067;-64
2023/05/20 09:43:41;;;;;;;1.63;1.02;;;20.30;1.00;;;;;;5081285;28;20160;-62
2023/05/20 09:46:08;;;;;;;0.93;0.90;;;20.30;1.00;;;;;;5087922;28;20055;-61
2023/05/20 09:48:37;;;;;;;1.67;1.05;;;20.40;1.00;;;;;;5087313;28;20075;-68
2023/05/20 09:51:04;;;;;;;1.73;0.98;;;20.40;1.00;;;;;;5070773;28;20044;-67
2023/05/20 09:53:30;;;;;;;3.90;0.93;;;20.20;1.00;;;;;;5090175;28;20556;-66
2023/05/20 09:55:56;;;;;;;7.53;1.60;;;19.90;1.00;;;;;;5088278;28;20134;-64
2023/05/20 09:58:23;;;;;;;4.05;1.55;;;19.90;1.00;;;;;;5087436;28;20051;-71
2023/05/20 10:00:49;;;;;;;1.95;1.17;;;19.90;1.00;;;;;;5088520;28;20054;-62
2023/05/20 10:03:17;;;;;;;3.33;0.95;;;20.00;1.00;;;;;;5072494;27;20059;-64
2023/05/20 10:05:54;;;;;;;1.20;0.93;;;20.20;1.00;;;;;;5088054;28;20506;-62
2023/05/20 10:08:38;;;;;;;2.55;1.08;;;20.50;1.00;;;;;;5088183;28;20048;-67
2023/05/20 10:11:13;;;;;;;8.90;1.30;;;20.60;1.00;;;;;;5107072;27;20039;-67
2023/05/20 10:13:57;;;;;;;3.80;1.00;;;20.70;1.00;;;;;;5090747;27;20058;-64
2023/05/20 10:16:44;;;;;;;1.58;1.02;;;20.80;1.00;;;;;;5082324;28;20051;-65
2023/05/20 10:19:27;;;;;;;4.68;1.20;;;20.70;1.00;;;;;;5070556;28;20046;-62
2023/05/20 10:22:00;;;;;;;4.20;1.00;;;20.70;1.00;;;;;;5087296;28;20085;-67
2023/05/20 10:24:31;;;;;;;2.50;1.25;;;20.60;1.00;;;;;;5085990;28;20051;-74
2023/05/20 10:27:01;;;;;;;3.88;1.10;;;20.50;1.00;;;;;;5087282;28;20047;-69
2023/05/20 10:29:27;;;;;;;4.22;1.23;;;20.40;1.00;;;;;;5086753;28;20048;-67
2023/05/20 10:31:54;;;;;;;2.17;1.20;;;20.40;1.00;;;;;;5088026;28;20070;-64
2023/05/20 10:34:21;;;;;;;3.42;1.10;;;20.40;1.00;;;;;;5123552;27;20092;-72
2023/05/20 10:36:53;;;;;;;3.17;0.98;;;20.20;1.00;;;;;;5090217;28;20052;-65
2023/05/20 10:39:28;;;;;;;4.13;1.20;;;20.20;1.00;;;;;;5088078;28;20122;-65
2023/05/20 10:42:06;;;;;;;3.85;1.10;;;20.40;1.00;;;;;;5086791;28;20044;-68
2023/05/20 10:44:45;;;;;;;2.30;0.90;;;20.60;1.00;;;;;;5088035;28;20147;-72
2023/05/20 10:47:12;;;;;;;2.08;1.00;;;20.60;1.00;;;;;;5081246;28;20069;-65
2023/05/20 10:49:46;;;;;;;1.80;0.95;;;20.60;1.00;;;;;;5120937;27;20123;-73
2023/05/20 10:52:13;;;;;;;6.07;1.10;;;20.60;1.00;;;;;;5103378;28;20047;-65
2023/05/20 10:54:59;;;;;;;1.67;1.00;;;20.80;1.00;;;;;;5086666;28;20048;-71
2023/05/20 10:57:28;;;;;;;2.42;0.95;;;20.90;1.00;;;;;;5093139;28;20512;-65
2023/05/20 10:59:55;;;;;;;1.67;1.20;;;20.50;1.00;;;;;;5085044;28;20147;-69
2023/05/20 11:02:25;;;;;;;2.30;1.30;;;20.30;1.00;;;;;;5070335;28;20392;-65
2023/05/20 11:04:52;;;;;;;5.30;1.98;;;20.40;1.00;;;;;;5111856;28;20128;-64
2023/05/20 11:07:28;;;;;;;3.05;1.05;;;20.60;1.00;;;;;;5087384;28;20039;-66
2023/05/20 11:09:55;;;;;;;1.63;1.13;;;20.70;1.00;;;;;;5094953;28;20050;-66
2023/05/20 11:12:22;;;;;;;5.75;1.27;;;20.90;1.00;;;;;;5076279;28;20047;-71
2023/05/20 11:14:49;;;;;;;1.55;1.00;;;20.90;1.00;;;;;;5085745;28;20147;-63
2023/05/20 11:17:16;;;;;;;6.53;1.13;;;20.90;1.00;;;;;;5087380;28;20402;-63
2023/05/20 11:19:42;;;;;;;2.75;1.15;;;20.60;1.00;;;;;;5086409;28;20075;-64
2023/05/20 11:22:07;;;;;;;3.88;1.20;;;20.40;1.00;;;;;;5070436;28;20071;-64
2023/05/20 11:24:33;;;;;;;2.95;1.17;;;20.40;1.00;;;;;;5085818;28;20054;-73
2023/05/20 11:27:00;;;;;;;3.88;1.20;;;20.40;1.00;;;;;;5087466;28;20092;-65
2023/05/20 11:29:27;;;;;;;1.70;1.00;;;20.50;1.00;;;;;;5084644;28;20047;-68
2023/05/20 11:31:54;;;;;;;1.83;1.10;;;20.60;1.00;;;;;;5068544;28;20156;-62
2023/05/20 11:34:23;;;;;;;1.10;1.00;;;20.70;1.00;;;;;;5068965;28;20430;-68
2023/05/20 11:36:58;;;;;;;0.80;0.80;;;20.80;1.00;;;;;;5119659;28;20775;-62
2023/05/20 11:39:28;;;;;;;2.25;1.17;;;20.70;1.00;;;;;;5086862;28;20405;-68
2023/05/20 11:41:54;;;;;;;4.28;0.95;;;20.70;1.00;;;;;;5081181;28;20142;-62
2023/05/20 11:44:20;;;;;;;2.85;1.00;;;20.70;1.00;;;;;;5070444;28;20135;-64
2023/05/20 11:46:47;;;;;;;5.45;0.95;;;20.70;1.00;;;;;;5052590;28;20046;-65
2023/05/20 11:49:16;;;;;;;2.47;0.93;;;20.50;1.00;;;;;;5111651;28;20063;-65
2023/05/20 11:51:43;;;;;;;1.73;1.20;;;20.50;1.00;;;;;;5069691;28;20035;-63
2023/05/20 11:54:10;;;;;;;4.00;1.02;;;20.40;1.00;;;;;;5053833;28;20048;-67
2023/05/20 11:56:40;;;;;;;1.27;0.90;;;20.40;1.00;;;;;;5070019;28;20052;-65
2023/05/20 11:59:07;;;;;;;8.18;0.80;;;20.50;1.00;;;;;;5071691;28;20051;-65
2023/05/20 12:01:44;;;;;;;4.10;1.10;;;20.50;1.00;;;;;;5117914;28;20131;-68
2023/05/20 12:04:14;;;;;;;2.33;1.08;;;20.40;1.00;;;;;;5086763;28;20126;-63
2023/05/20 12:06:41;;;;;;;3.47;1.00;;;20.40;1.00;;;;;;5086829;28;20087;-66
2023/05/20 12:09:09;;;;;;;3.28;1.10;;;20.30;1.00;;;;;;5087563;28;20119;-67
2023/05/20 12:11:43;;;;;;;2.28;0.82;;;20.30;1.00;;;;;;5091187;27;20133;-71
2023/05/20 12:14:09;;;;;;;1.45;1.20;;;20.30;1.00;;;;;;5102382;28;20052;-65
2023/05/20 12:16:36;;;;;;;1.88;1.20;;;20.30;1.00;;;;;;5089771;28;20073;-71
2023/05/20 12:19:02;;;;;;;1.58;1.08;;;20.20;1.00;;;;;;5090160;28;20047;-65
2023/05/20 12:21:30;;;;;;;1.13;0.95;;;20.20;1.00;;;;;;5090642;28;20051;-71
2023/05/20 12:23:56;;;;;;;2.15;1.15;;;20.20;1.00;;;;;;5114408;27;20089;-70
2023/05/20 12:26:23;;;;;;;2.90;1.73;;;20.00;1.00;;;;;;5098650;28;20036;-65
2023/05/20 12:28:49;;;;;;;3.13;1.15;;;20.00;1.00;;;;;;5089681;28;20055;-63
2023/05/20 12:31:15;;;;;;;2.15;1.05;;;19.90;1.00;;;;;;5095542;28;20048;-69
2023/05/20 12:33:41;;;;;;;1.27;1.10;;;20.00;1.00;;;;;;5089429;28;20497;-63
2023/05/20 12:36:07;;;;;;;3.60;1.42;;;20.00;1.00;;;;;;5090205;28;20084;-64
2023/05/20 12:38:33;;;;;;;2.72;1.52;;;20.00;1.00;;;;;;5072132;28;20494;-67
2023/05/20 12:40:59;;;;;;;2.80;1.33;;;19.90;1.00;;;;;;5094722;27;20046;-66
2023/05/20 12:43:25;;;;;;;4.03;2.03;;;19.90;1.00;;;;;;5073987;28;20051;-67
2023/05/20 12:45:51;;;;;;;4.53;1.75;;;19.90;1.00;;;;;;5088488;28;20509;-67
2023/05/20 12:48:17;;;;;;;6.15;1.20;;;19.90;1.00;;;;;;5071616;28;20114;-66
2023/05/20 12:50:43;;;;;;;2.92;1.20;;;19.80;1.00;;;;;;5071632;28;20114;-65